createdAt,value
2023-04-18T00:00:54.976Z,66.73
2023-04-18T00:03:27.014Z,65.80
2023-04-18T00:05:58.912Z,66.43
2023-04-18T00:08:30.575Z,66.39
2023-04-18T00:11:02.439Z,66.25
2023-04-18T00:13:34.192Z,65.82
2023-04-18T00:16:06.274Z,66.58
2023-04-18T00:18:37.815Z,67.18
2023-04-18T00:21:09.412Z,66.46
2023-04-18T00:23:41.078Z,67.32
2023-04-18T00:26:13.074Z,67.55
2023-04-18T00:28:45.696Z,68.36
2023-04-18T00:31:17.298Z,68.96
2023-04-18T00:33:48.954Z,67.38
2023-04-18T00:36:20.592Z,68.89
2023-04-18T00:38:52.335Z,68.26
2023-04-18T00:41:23.917Z,68.79
2023-04-18T00:43:55.475Z,69.20
2023-04-18T00:46:27.634Z,69.77
2023-04-18T00:48:59.539Z,70.30
2023-04-18T00:51:31.200Z,70.23
2023-04-18T00:54:07.211Z,69.18
2023-04-18T00:56:39.034Z,70.12
2023-04-18T00:59:10.987Z,70.34
2023-04-18T01:01:44.443Z,69.79
2023-04-18T01:04:17.501Z,70.12
2023-04-18T01:06:49.550Z,70.50
2023-04-18T01:09:24.139Z,70.30
2023-04-18T01:11:57.523Z,71.34
2023-04-18T01:14:29.313Z,69.71
2023-04-18T01:17:00.969Z,69.52
2023-04-18T01:19:32.635Z,69.69
2023-04-18T01:22:04.329Z,69.19
2023-04-18T01:24:35.977Z,69.13
2023-04-18T01:27:11.355Z,69.75
2023-04-18T01:29:43.047Z,69.69
2023-04-18T01:32:15.172Z,70.07
2023-04-18T01:34:49.596Z,69.64
2023-04-18T01:37:21.652Z,69.04
2023-04-18T01:39:53.523Z,68.99
2023-04-18T01:42:25.359Z,68.27
2023-04-18T01:44:57.232Z,67.35
2023-04-18T01:47:29.399Z,69.19
2023-04-18T01:50:02.745Z,69.24
2023-04-18T01:52:35.010Z,69.02
2023-04-18T01:55:07.001Z,67.96
2023-04-18T01:57:40.650Z,68.38
2023-04-18T02:00:13.075Z,68.04
2023-04-18T02:02:47.772Z,67.52
2023-04-18T02:05:19.658Z,68.14
2023-04-18T02:07:51.452Z,67.94
2023-04-18T02:10:24.267Z,69.04
2023-04-18T02:12:56.119Z,68.19
2023-04-18T02:15:28.243Z,65.84
2023-04-18T02:18:00.372Z,67.09
2023-04-18T02:20:32.838Z,67.68
2023-04-18T02:23:06.834Z,67.47
2023-04-18T02:25:38.750Z,65.43
2023-04-18T02:28:11.606Z,65.28
2023-04-18T02:30:43.298Z,65.26
2023-04-18T02:33:15.193Z,66.94
2023-04-18T02:35:46.913Z,66.92
2023-04-18T02:38:20.897Z,67.23
2023-04-18T02:40:56.809Z,66.75
2023-04-18T02:43:28.407Z,67.23
2023-04-18T02:46:00.098Z,66.52
2023-04-18T02:48:32.241Z,66.76
2023-04-18T02:51:05.494Z,66.14
2023-04-18T02:53:39.727Z,67.08
2023-04-18T02:56:11.475Z,66.65
2023-04-18T02:59:03.359Z,66.71
2023-04-18T03:02:00.990Z,67.21
2023-04-18T03:04:33.113Z,66.48
2023-04-18T03:07:07.077Z,65.56
2023-04-18T03:09:41.614Z,65.38
2023-04-18T03:12:22.649Z,66.14
2023-04-18T03:14:54.259Z,66.45
2023-04-18T03:17:26.280Z,67.30
2023-04-18T03:19:57.887Z,66.09
2023-04-18T03:22:29.536Z,65.99
2023-04-18T03:25:02.238Z,65.64
2023-04-18T03:27:46.401Z,66.33
2023-04-18T03:30:21.226Z,64.81
2023-04-18T03:33:03.535Z,65.33
2023-04-18T03:35:35.548Z,65.22
2023-04-18T03:38:07.139Z,66.20
2023-04-18T03:40:42.273Z,67.45
2023-04-18T03:43:21.133Z,66.87
2023-04-18T03:45:53.108Z,66.55
2023-04-18T03:48:25.191Z,65.54
2023-04-18T03:50:57.506Z,64.88
2023-04-18T03:53:29.193Z,64.33
2023-04-18T03:56:01.109Z,64.61
2023-04-18T03:58:47.850Z,64.36
2023-04-18T04:01:19.771Z,64.91
2023-04-18T04:03:51.615Z,64.57
2023-04-18T04:06:24.359Z,65.38
2023-04-18T04:08:56.166Z,63.92
2023-04-18T04:11:30.450Z,63.39
2023-04-18T04:14:03.368Z,65.16
2023-04-18T04:16:43.007Z,65.40
2023-04-18T04:19:17.485Z,64.31
2023-04-18T04:21:58.478Z,65.07
2023-04-18T04:24:31.431Z,64.83
2023-04-18T04:27:03.332Z,63.97
2023-04-18T04:29:35.184Z,63.26
2023-04-18T04:32:07.677Z,63.56
2023-04-18T04:34:42.475Z,64.49
2023-04-18T04:37:16.443Z,64.58
2023-04-18T04:40:00.997Z,63.96
2023-04-18T04:42:48.328Z,65.28
2023-04-18T04:45:26.699Z,64.31
2023-04-18T04:47:59.437Z,65.73
2023-04-18T04:50:36.321Z,65.11
2023-04-18T04:53:08.925Z,64.43
2023-04-18T04:55:40.988Z,65.01
2023-04-18T04:58:13.006Z,63.71
2023-04-18T05:01:03.421Z,63.63
2023-04-18T05:03:37.437Z,64.58
2023-04-18T05:06:09.552Z,64.27
2023-04-18T05:08:41.150Z,65.63
2023-04-18T05:11:12.778Z,65.71
2023-04-18T05:13:44.637Z,62.71
2023-04-18T05:16:16.392Z,63.34
2023-04-18T05:18:47.996Z,64.41
2023-04-18T05:21:19.601Z,63.49
2023-04-18T05:23:51.256Z,62.33
2023-04-18T05:26:23.542Z,61.84
2023-04-18T05:28:55.163Z,61.23
2023-04-18T05:31:26.777Z,61.21
2023-04-18T05:33:59.021Z,62.83
2023-04-18T05:36:30.879Z,63.20
2023-04-18T05:39:02.564Z,64.24
2023-04-18T05:41:34.220Z,62.74
2023-04-18T05:44:16.872Z,61.92
2023-04-18T05:46:48.661Z,60.43
2023-04-18T05:49:20.634Z,59.94
2023-04-18T05:51:52.250Z,60.05
2023-04-18T05:54:24.278Z,58.31
2023-04-18T05:56:56.655Z,55.22
2023-04-18T05:59:28.302Z,52.63
2023-04-18T06:02:00.012Z,52.88
2023-04-18T06:04:32.044Z,50.56
2023-04-18T06:07:03.800Z,54.53
2023-04-18T06:09:35.631Z,55.75
2023-04-18T06:12:07.341Z,54.63
2023-04-18T06:14:39.037Z,56.12
2023-04-18T06:17:10.748Z,54.46
2023-04-18T06:19:42.484Z,49.79
2023-04-18T06:22:14.162Z,52.60
2023-04-18T06:24:45.966Z,52.46
2023-04-18T06:27:30.239Z,53.34
2023-04-18T06:30:04.284Z,54.17
2023-04-18T06:32:36.040Z,56.08
2023-04-18T06:35:08.023Z,56.93
2023-04-18T06:37:39.798Z,55.48
2023-04-18T06:40:11.966Z,55.29
2023-04-18T06:42:43.839Z,57.19
2023-04-18T06:45:15.766Z,59.01
2023-04-18T06:47:48.631Z,58.06
2023-04-18T06:50:22.202Z,58.75
2023-04-18T06:52:53.881Z,59.44
2023-04-18T06:55:25.624Z,59.36
2023-04-18T06:57:57.446Z,60.28
2023-04-18T07:00:29.579Z,59.53
2023-04-18T07:03:01.649Z,59.75
2023-04-18T07:05:33.553Z,57.93
2023-04-18T07:08:05.552Z,56.26
2023-04-18T07:10:37.670Z,56.20
2023-04-18T07:13:09.735Z,56.33
2023-04-18T07:15:41.530Z,55.56
2023-04-18T07:18:18.036Z,52.65
2023-04-18T07:20:55.295Z,53.39
2023-04-18T07:23:27.267Z,51.80
2023-04-18T07:25:59.001Z,51.87
2023-04-18T07:28:32.735Z,51.85
2023-04-18T07:31:04.645Z,51.86
2023-04-18T07:33:38.287Z,49.63
2023-04-18T07:36:10.056Z,49.33
2023-04-18T07:38:41.899Z,49.17
2023-04-18T07:41:13.622Z,50.33
2023-04-18T07:43:45.188Z,48.76
2023-04-18T07:46:16.874Z,49.73
2023-04-18T07:48:48.542Z,50.89
2023-04-18T07:51:20.560Z,50.48
2023-04-18T07:53:52.470Z,51.01
2023-04-18T07:56:24.370Z,50.34
2023-04-18T07:58:55.940Z,50.08
2023-04-18T08:01:27.537Z,46.94
2023-04-18T08:03:59.484Z,48.14
2023-04-18T08:06:31.124Z,47.83
2023-04-18T08:09:03.094Z,49.53
2023-04-18T08:11:35.159Z,45.86
2023-04-18T08:14:06.718Z,45.41
2023-04-18T08:16:39.231Z,45.92
2023-04-18T08:19:10.985Z,45.72
2023-04-18T08:21:42.735Z,46.12
2023-04-18T08:24:14.499Z,48.37
2023-04-18T08:26:46.156Z,47.47
2023-04-18T08:29:17.845Z,47.63
2023-04-18T08:31:49.631Z,47.47
2023-04-18T08:34:21.357Z,47.47
2023-04-18T08:36:53.013Z,46.74
2023-04-18T08:39:25.406Z,47.00
2023-04-18T08:41:59.647Z,48.00
2023-04-18T08:44:31.340Z,47.88
2023-04-18T08:47:03.212Z,46.92
2023-04-18T08:49:35.161Z,49.04
2023-04-18T08:52:13.044Z,47.58
2023-04-18T08:54:46.436Z,46.42
2023-04-18T08:57:19.282Z,47.56
2023-04-18T08:59:51.189Z,46.22
2023-04-18T09:02:36.634Z,46.73
2023-04-18T09:05:22.506Z,45.05
2023-04-18T09:07:55.701Z,45.47
2023-04-18T09:10:37.179Z,46.63
2023-04-18T09:13:08.853Z,49.08
2023-04-18T09:15:40.655Z,50.74
2023-04-18T09:18:12.456Z,49.11
2023-04-18T09:20:44.284Z,49.27
2023-04-18T09:23:23.392Z,49.39
2023-04-18T09:25:55.078Z,49.02
2023-04-18T09:28:26.758Z,50.15
2023-04-18T09:31:08.157Z,49.73
2023-04-18T09:33:51.066Z,50.01
2023-04-18T09:36:25.440Z,48.51
2023-04-18T09:38:57.443Z,48.45
2023-04-18T09:41:29.416Z,47.58
2023-04-18T09:44:13.954Z,47.73
2023-04-18T09:46:47.535Z,48.38
2023-04-18T09:49:20.512Z,47.95
2023-04-18T09:51:54.394Z,46.68
2023-04-18T09:54:32.749Z,47.15
2023-04-18T09:57:10.914Z,49.00
2023-04-18T09:59:54.931Z,48.06
2023-04-18T10:02:34.599Z,45.17
2023-04-18T10:05:08.421Z,45.74
2023-04-18T10:07:43.806Z,46.12
2023-04-18T10:10:16.234Z,47.15
2023-04-18T10:12:49.961Z,48.47
2023-04-18T10:15:24.606Z,47.50
2023-04-18T10:18:05.064Z,47.50
2023-04-18T10:20:41.199Z,48.45
2023-04-18T10:23:31.117Z,48.95
2023-04-18T10:26:07.451Z,48.20
2023-04-18T10:28:58.695Z,48.89
2023-04-18T10:31:39.260Z,47.39
2023-04-18T10:34:12.946Z,48.89
2023-04-18T10:37:04.478Z,48.45
2023-04-18T10:39:57.805Z,47.64
2023-04-18T10:43:01.965Z,47.51
2023-04-18T10:45:33.584Z,47.05
2023-04-18T10:48:27.915Z,48.34
2023-04-18T10:51:17.848Z,44.58
2023-04-18T10:53:56.134Z,44.38
2023-04-18T10:56:28.673Z,43.99
2023-04-18T10:59:02.828Z,45.78
2023-04-18T11:01:38.071Z,46.82
2023-04-18T11:04:14.242Z,44.59
2023-04-18T11:06:49.314Z,43.82
2023-04-18T11:09:20.940Z,43.16
2023-04-18T11:12:11.169Z,44.37
2023-04-18T11:14:49.645Z,45.84
2023-04-18T11:17:26.453Z,44.90
2023-04-18T11:20:02.340Z,45.45
2023-04-18T11:23:04.000Z,44.55
2023-04-18T11:25:35.867Z,42.97
2023-04-18T11:28:07.583Z,45.37
2023-04-18T11:30:41.369Z,41.10
2023-04-18T11:33:14.695Z,42.35
2023-04-18T11:35:46.906Z,43.51
2023-04-18T11:38:29.060Z,40.17
2023-04-18T11:41:02.659Z,42.81
2023-04-18T11:43:34.557Z,46.24
2023-04-18T11:46:06.237Z,43.45
2023-04-18T11:48:40.211Z,40.37
2023-04-18T11:51:32.429Z,40.60
2023-04-18T11:54:04.519Z,38.86
2023-04-18T11:56:36.934Z,41.54
2023-04-18T11:59:09.967Z,41.65
2023-04-18T12:01:41.870Z,40.00
2023-04-18T12:04:14.249Z,40.79
2023-04-18T12:06:50.817Z,39.83
2023-04-18T12:09:24.407Z,40.69
2023-04-18T12:12:00.982Z,39.82
2023-04-18T12:14:35.805Z,39.75
2023-04-18T12:17:07.448Z,39.03
2023-04-18T12:19:43.950Z,38.10
2023-04-18T12:22:15.832Z,38.23
2023-04-18T12:25:13.315Z,40.81
2023-04-18T12:27:49.668Z,40.85
2023-04-18T12:30:30.522Z,41.88
2023-04-18T12:33:03.920Z,41.12
2023-04-18T12:35:35.849Z,39.87
2023-04-18T12:38:07.908Z,38.41
2023-04-18T12:40:40.386Z,40.69
2023-04-18T12:43:12.037Z,40.02
2023-04-18T12:45:43.974Z,39.56
2023-04-18T12:48:15.584Z,39.29
2023-04-18T12:50:47.132Z,39.44
2023-04-18T12:53:18.660Z,40.70
2023-04-18T12:55:50.313Z,41.79
2023-04-18T12:58:21.934Z,41.58
2023-04-18T13:00:53.570Z,43.43
2023-04-18T13:03:25.600Z,40.81
2023-04-18T13:05:57.277Z,39.98
2023-04-18T13:08:29.183Z,39.91
2023-04-18T13:11:00.789Z,41.35
2023-04-18T13:13:34.462Z,41.53
2023-04-18T13:16:07.549Z,41.33
2023-04-18T13:18:39.218Z,42.24
2023-04-18T13:21:10.919Z,41.33
2023-04-18T13:23:42.515Z,42.16
2023-04-18T13:26:14.128Z,41.46
2023-04-18T13:28:45.782Z,39.80
2023-04-18T13:31:17.394Z,41.43
2023-04-18T13:33:48.963Z,41.18
2023-04-18T13:36:20.595Z,41.97
2023-04-18T13:38:52.552Z,42.71
2023-04-18T13:41:24.239Z,41.18
2023-04-18T13:43:56.079Z,40.68
2023-04-18T13:46:27.824Z,44.15
2023-04-18T13:48:59.628Z,44.12
2023-04-18T13:51:31.318Z,41.63
2023-04-18T13:54:03.875Z,42.29
2023-04-18T13:56:35.577Z,40.12
2023-04-18T13:59:07.677Z,40.86
2023-04-18T14:01:39.524Z,38.10
2023-04-18T14:04:11.593Z,40.07
2023-04-18T14:06:43.457Z,41.35
2023-04-18T14:09:15.568Z,39.67
2023-04-18T14:11:47.451Z,42.15
2023-04-18T14:14:19.454Z,40.78
2023-04-18T14:16:51.223Z,41.42
2023-04-18T14:19:23.089Z,41.56
2023-04-18T14:21:54.838Z,41.48
2023-04-18T14:24:26.691Z,42.95
2023-04-18T14:26:58.415Z,41.19
2023-04-18T14:29:30.198Z,40.89
2023-04-18T14:32:02.103Z,40.66
2023-04-18T14:34:35.328Z,42.37
2023-04-18T14:37:08.464Z,42.70
2023-04-18T14:39:40.424Z,40.25
2023-04-18T14:42:12.425Z,40.96
2023-04-18T14:44:44.154Z,39.84
2023-04-18T14:47:15.995Z,40.84
2023-04-18T14:49:47.873Z,41.82
2023-04-18T14:52:19.689Z,41.03
2023-04-18T14:54:52.557Z,38.73
2023-04-18T14:57:25.409Z,38.79
2023-04-18T14:59:57.196Z,37.72
2023-04-18T15:02:29.349Z,40.84
2023-04-18T15:05:01.310Z,39.81
2023-04-18T15:07:34.472Z,38.44
2023-04-18T15:10:07.156Z,37.95
2023-04-18T15:12:39.169Z,39.59
2023-04-18T15:15:11.133Z,41.55
2023-04-18T15:17:42.767Z,40.16
2023-04-18T15:20:14.441Z,39.70
2023-04-18T15:22:46.055Z,40.51
2023-04-18T15:25:17.815Z,40.01
2023-04-18T15:27:49.678Z,36.43
2023-04-18T15:30:21.427Z,33.48
2023-04-18T15:32:53.055Z,32.63
2023-04-18T15:35:24.993Z,28.92
2023-04-18T15:37:57.003Z,27.64
2023-04-18T15:40:28.721Z,28.03
2023-04-18T15:43:00.376Z,26.84
2023-04-18T15:45:33.390Z,26.60
2023-04-18T15:48:05.216Z,26.81
2023-04-18T15:50:36.826Z,28.15
2023-04-18T15:53:08.434Z,27.20
2023-04-18T15:55:39.972Z,27.27
2023-04-18T15:58:11.599Z,27.63
2023-04-18T16:00:43.221Z,29.57
2023-04-18T16:03:14.901Z,29.58
2023-04-18T16:05:46.653Z,30.29
2023-04-18T16:08:18.246Z,28.34
2023-04-18T16:10:52.114Z,29.84
2023-04-18T16:13:23.829Z,29.66
2023-04-18T16:15:55.572Z,31.12
2023-04-18T16:18:27.150Z,33.64
2023-04-18T16:20:58.902Z,34.98
2023-04-18T16:23:31.637Z,36.34
2023-04-18T16:26:03.427Z,37.03
2023-04-18T16:28:35.164Z,38.18
2023-04-18T16:31:07.055Z,39.77
2023-04-18T16:33:38.835Z,42.85
2023-04-18T16:36:10.681Z,41.20
2023-04-18T16:38:42.412Z,43.31
2023-04-18T16:41:14.282Z,43.27
2023-04-18T16:43:46.081Z,43.75
2023-04-18T16:46:18.162Z,43.69
2023-04-18T16:48:51.790Z,44.50
2023-04-18T16:51:24.750Z,45.54
2023-04-18T16:53:56.541Z,45.71
2023-04-18T16:56:29.165Z,45.97
2023-04-18T16:59:00.826Z,46.21
2023-04-18T17:01:32.883Z,46.07
2023-04-18T17:04:05.252Z,45.48
2023-04-18T17:06:37.190Z,48.75
2023-04-18T17:09:08.811Z,46.75
2023-04-18T17:11:41.920Z,47.11
2023-04-18T17:14:14.439Z,46.93
2023-04-18T17:16:46.345Z,47.36
2023-04-18T17:19:18.153Z,46.87
2023-04-18T17:21:50.582Z,47.46
2023-04-18T17:24:22.719Z,48.74
2023-04-18T17:26:54.787Z,47.80
2023-04-18T17:29:26.703Z,48.58
2023-04-18T17:31:58.473Z,48.13
2023-04-18T17:34:30.338Z,48.59
2023-04-18T17:37:02.156Z,49.17
2023-04-18T17:39:34.774Z,47.38
2023-04-18T17:42:06.571Z,49.00
2023-04-18T17:44:38.447Z,49.24
2023-04-18T17:47:10.101Z,49.79
2023-04-18T17:49:41.704Z,48.74
2023-04-18T17:52:13.290Z,49.57
2023-04-18T17:54:44.935Z,50.12
2023-04-18T17:57:16.589Z,49.85
2023-04-18T17:59:48.299Z,50.26
2023-04-18T18:02:20.000Z,50.20
2023-04-18T18:04:51.600Z,50.51
2023-04-18T18:07:23.262Z,51.37
2023-04-18T18:09:54.859Z,51.75
2023-04-18T18:12:26.805Z,50.94
2023-04-18T18:14:58.373Z,51.44
2023-04-18T18:17:29.921Z,52.32
2023-04-18T18:20:01.586Z,52.12
2023-04-18T18:22:33.155Z,52.42
2023-04-18T18:25:05.144Z,52.62
2023-04-18T18:27:36.803Z,52.67
2023-04-18T18:30:08.820Z,52.45
2023-04-18T18:32:40.435Z,53.29
2023-04-18T18:35:12.438Z,53.15
2023-04-18T18:37:43.986Z,54.32
2023-04-18T18:40:16.072Z,53.75
2023-04-18T18:42:47.755Z,53.05
2023-04-18T18:45:19.596Z,53.46
2023-04-18T18:47:51.285Z,54.16
2023-04-18T18:50:23.072Z,53.17
2023-04-18T18:52:54.767Z,53.28
2023-04-18T18:55:26.449Z,54.94
2023-04-18T18:57:58.194Z,55.20
2023-04-18T19:00:30.441Z,54.98
2023-04-18T19:03:02.361Z,55.31
2023-04-18T19:05:36.326Z,55.86
2023-04-18T19:08:08.008Z,55.39
2023-04-18T19:10:41.681Z,54.54
2023-04-18T19:13:13.468Z,56.39
2023-04-18T19:15:45.381Z,55.89
2023-04-18T19:18:17.218Z,55.67
2023-04-18T19:20:50.381Z,55.43
2023-04-18T19:23:22.278Z,56.79
2023-04-18T19:25:54.019Z,56.45
2023-04-18T19:28:25.872Z,57.39
2023-04-18T19:30:57.540Z,57.73
2023-04-18T19:33:29.518Z,58.63
2023-04-18T19:36:01.248Z,57.82
2023-04-18T19:38:33.351Z,58.46
2023-04-18T19:41:05.343Z,58.71
2023-04-18T19:43:37.351Z,58.09
2023-04-18T19:46:09.166Z,57.35
2023-04-18T19:48:40.905Z,58.33
2023-04-18T19:51:12.871Z,58.76
2023-04-18T19:53:45.664Z,58.84
2023-04-18T19:56:17.464Z,58.61
2023-04-18T19:58:49.155Z,58.54
2023-04-18T20:01:21.419Z,58.77
2023-04-18T20:03:53.437Z,59.19
2023-04-18T20:06:26.346Z,58.56
2023-04-18T20:08:58.023Z,59.25
2023-04-18T20:11:30.297Z,59.65
2023-04-18T20:14:02.335Z,59.10
2023-04-18T20:16:34.198Z,59.62
2023-04-18T20:19:05.888Z,59.06
2023-04-18T20:21:37.606Z,58.41
2023-04-18T20:24:09.200Z,58.18
2023-04-18T20:26:40.798Z,58.85
2023-04-18T20:29:12.665Z,59.23
2023-04-18T20:31:44.415Z,59.14
2023-04-18T20:34:15.988Z,60.39
2023-04-18T20:36:47.586Z,60.32
2023-04-18T20:39:19.605Z,60.85
2023-04-18T20:41:51.345Z,61.30
2023-04-18T20:44:23.477Z,60.40
2023-04-18T20:46:55.079Z,59.85
2023-04-18T20:49:26.716Z,60.45
2023-04-18T20:51:58.273Z,60.48
2023-04-18T20:54:29.867Z,60.74
2023-04-18T20:57:01.673Z,60.63
2023-04-18T20:59:36.478Z,60.77
2023-04-18T21:02:08.506Z,60.62
2023-04-18T21:04:40.364Z,61.17
2023-04-18T21:07:12.351Z,60.52
2023-04-18T21:09:44.031Z,60.87
2023-04-18T21:12:15.845Z,61.02
2023-04-18T21:14:48.559Z,61.45
2023-04-18T21:17:20.252Z,61.93
2023-04-18T21:19:51.946Z,61.84
2023-04-18T21:22:23.786Z,61.48
2023-04-18T21:24:55.461Z,61.07
2023-04-18T21:27:27.368Z,60.74
2023-04-18T21:29:59.140Z,60.03
2023-04-18T21:32:31.202Z,60.79
2023-04-18T21:35:02.947Z,61.32
2023-04-18T21:37:34.722Z,59.55
2023-04-18T21:40:09.486Z,60.66
2023-04-18T21:42:41.361Z,60.61
2023-04-18T21:45:13.173Z,61.47
2023-04-18T21:47:44.845Z,61.58
2023-04-18T21:50:16.560Z,60.75
2023-04-18T21:52:48.377Z,62.00
2023-04-18T21:55:20.400Z,61.79
2023-04-18T21:57:52.077Z,61.05
2023-04-18T22:00:23.975Z,61.79
2023-04-18T22:02:55.973Z,62.37
2023-04-18T22:05:27.732Z,61.93
2023-04-18T22:07:59.528Z,61.90
2023-04-18T22:10:31.995Z,62.44
2023-04-18T22:13:03.963Z,61.99
2023-04-18T22:15:35.936Z,62.02
2023-04-18T22:18:08.871Z,61.43
2023-04-18T22:20:41.562Z,61.08
2023-04-18T22:23:14.448Z,61.66
2023-04-18T22:25:46.229Z,61.31
2023-04-18T22:28:18.219Z,62.81
2023-04-18T22:30:50.629Z,63.41
2023-04-18T22:33:22.570Z,63.60
2023-04-18T22:35:54.454Z,62.77
2023-04-18T22:38:26.555Z,63.07
2023-04-18T22:41:01.549Z,63.63
2023-04-18T22:43:33.645Z,64.06
2023-04-18T22:46:05.458Z,64.39
2023-04-18T22:48:37.384Z,64.13
2023-04-18T22:51:09.049Z,64.97
2023-04-18T22:53:40.695Z,64.20
2023-04-18T22:56:12.340Z,64.38
2023-04-18T22:58:43.997Z,63.55
2023-04-18T23:01:15.656Z,64.45
2023-04-18T23:03:47.528Z,64.46
2023-04-18T23:06:19.252Z,65.28
2023-04-18T23:08:50.789Z,65.27
2023-04-18T23:11:22.440Z,65.62
2023-04-18T23:13:54.156Z,66.15
2023-04-18T23:16:25.783Z,66.27
2023-04-18T23:18:57.415Z,67.24
2023-04-18T23:21:29.484Z,66.12
2023-04-18T23:24:01.271Z,66.19
2023-04-18T23:26:32.941Z,67.13
2023-04-18T23:29:04.835Z,66.00
2023-04-18T23:31:36.601Z,66.84
2023-04-18T23:34:09.978Z,66.93
2023-04-18T23:36:41.694Z,66.95
2023-04-18T23:39:13.357Z,66.40
2023-04-18T23:41:45.146Z,67.26
2023-04-18T23:44:16.965Z,66.40
2023-04-18T23:46:49.198Z,66.45
2023-04-18T23:49:20.915Z,66.66
2023-04-18T23:51:52.681Z,66.30
2023-04-18T23:54:24.454Z,65.14
2023-04-18T23:56:56.194Z,66.31
2023-04-18T23:59:27.861Z,65.89
